sensor_id;sensor_type;location;lat;lon;timestamp;P1;durP1;ratioP1;P2;durP2;ratioP2
9413;SDS011;4746;35.664;139.738;2023-03-31T00:01:09;20.00;;;17.87;;
9413;SDS011;4746;35.664;139.738;2023-03-31T00:03:37;19.87;;;17.87;;
9413;SDS011;4746;35.664;139.738;2023-03-31T00:06:08;19.50;;;17.50;;
9413;SDS011;4746;35.664;139.738;2023-03-31T00:08:42;21.77;;;17.57;;
9413;SDS011;4746;35.664;139.738;2023-03-31T00:11:11;18.23;;;16.40;;
9413;SDS011;4746;35.664;139.738;2023-03-31T00:13:39;18.23;;;15.67;;
9413;SDS011;4746;35.664;139.738;2023-03-31T00:16:07;17.53;;;14.20;;
9413;SDS011;4746;35.664;139.738;2023-03-31T00:18:35;17.07;;;14.30;;
9413;SDS011;4746;35.664;139.738;2023-03-31T00:21:12;18.57;;;14.03;;
9413;SDS011;4746;35.664;139.738;2023-03-31T00:23:59;18.90;;;15.60;;
9413;SDS011;4746;35.664;139.738;2023-03-31T00:26:30;15.80;;;13.57;;
9413;SDS011;4746;35.664;139.738;2023-03-31T00:29:00;16.17;;;14.47;;
9413;SDS011;4746;35.664;139.738;2023-03-31T00:31:31;16.83;;;15.00;;
9413;SDS011;4746;35.664;139.738;2023-03-31T00:34:00;16.93;;;15.13;;
9413;SDS011;4746;35.664;139.738;2023-03-31T00:36:28;13.80;;;12.20;;
9413;SDS011;4746;35.664;139.738;2023-03-31T00:38:57;15.43;;;14.00;;
9413;SDS011;4746;35.664;139.738;2023-03-31T00:41:30;12.87;;;9.67;;
9413;SDS011;4746;35.664;139.738;2023-03-31T00:44:04;7.87;;;7.17;;
9413;SDS011;4746;35.664;139.738;2023-03-31T00:49:46;9.73;;;7.50;;
9413;SDS011;4746;35.664;139.738;2023-03-31T00:52:26;10.70;;;8.17;;
9413;SDS011;4746;35.664;139.738;2023-03-31T00:55:06;10.60;;;8.03;;
9413;SDS011;4746;35.664;139.738;2023-03-31T00:57:42;11.70;;;9.13;;
9413;SDS011;4746;35.664;139.738;2023-03-31T01:00:29;8.33;;;7.33;;
9413;SDS011;4746;35.664;139.738;2023-03-31T01:02:58;9.77;;;7.97;;
9413;SDS011;4746;35.664;139.738;2023-03-31T01:08:18;10.27;;;7.00;;
9413;SDS011;4746;35.664;139.738;2023-03-31T01:10:51;7.70;;;6.90;;
9413;SDS011;4746;35.664;139.738;2023-03-31T01:13:22;7.93;;;7.13;;
9413;SDS011;4746;35.664;139.738;2023-03-31T01:15:52;9.37;;;7.90;;
9413;SDS011;4746;35.664;139.738;2023-03-31T01:18:20;7.83;;;6.97;;
9413;SDS011;4746;35.664;139.738;2023-03-31T01:23:50;8.83;;;5.67;;
9413;SDS011;4746;35.664;139.738;2023-03-31T01:26:48;5.90;;;4.47;;
9413;SDS011;4746;35.664;139.738;2023-03-31T01:29:53;6.67;;;4.63;;
9413;SDS011;4746;35.664;139.738;2023-03-31T01:48:20;4.77;;;4.37;;
9413;SDS011;4746;35.664;139.738;2023-03-31T01:51:16;6.03;;;4.20;;
9413;SDS011;4746;35.664;139.738;2023-03-31T01:54:03;6.00;;;4.90;;
9413;SDS011;4746;35.664;139.738;2023-03-31T01:57:04;6.60;;;3.90;;
9413;SDS011;4746;35.664;139.738;2023-03-31T01:59:43;4.93;;;4.37;;
9413;SDS011;4746;35.664;139.738;2023-03-31T02:02:39;4.63;;;4.23;;
9413;SDS011;4746;35.664;139.738;2023-03-31T02:05:25;5.10;;;4.60;;
9413;SDS011;4746;35.664;139.738;2023-03-31T02:08:05;6.53;;;4.57;;
9413;SDS011;4746;35.664;139.738;2023-03-31T02:10:38;4.87;;;4.13;;
9413;SDS011;4746;35.664;139.738;2023-03-31T02:13:10;4.03;;;3.63;;
9413;SDS011;4746;35.664;139.738;2023-03-31T02:15:42;9.20;;;4.17;;
9413;SDS011;4746;35.664;139.738;2023-03-31T02:18:17;6.00;;;4.50;;
9413;SDS011;4746;35.664;139.738;2023-03-31T02:20:51;5.53;;;3.40;;
9413;SDS011;4746;35.664;139.738;2023-03-31T02:23:24;4.67;;;3.30;;
9413;SDS011;4746;35.664;139.738;2023-03-31T02:25:58;3.93;;;2.70;;
9413;SDS011;4746;35.664;139.738;2023-03-31T02:28:30;6.33;;;3.13;;
9413;SDS011;4746;35.664;139.738;2023-03-31T02:33:59;4.60;;;2.67;;
9413;SDS011;4746;35.664;139.738;2023-03-31T02:36:27;2.80;;;2.47;;
9413;SDS011;4746;35.664;139.738;2023-03-31T02:39:15;4.80;;;2.57;;
9413;SDS011;4746;35.664;139.738;2023-03-31T02:41:53;4.67;;;2.80;;
9413;SDS011;4746;35.664;139.738;2023-03-31T02:44:21;4.22;;;2.97;;
9413;SDS011;4746;35.664;139.738;2023-03-31T02:46:50;5.30;;;3.00;;
9413;SDS011;4746;35.664;139.738;2023-03-31T02:49:19;6.50;;;3.23;;
9413;SDS011;4746;35.664;139.738;2023-03-31T02:57:51;8.93;;;3.70;;
9413;SDS011;4746;35.664;139.738;2023-03-31T03:03:35;5.65;;;3.20;;
9413;SDS011;4746;35.664;139.738;2023-03-31T03:12:10;6.50;;;3.80;;
9413;SDS011;4746;35.664;139.738;2023-03-31T03:15:24;8.45;;;3.40;;
9413;SDS011;4746;35.664;139.738;2023-03-31T03:18:10;3.80;;;3.15;;
9413;SDS011;4746;35.664;139.738;2023-03-31T03:20:39;4.00;;;3.45;;
9413;SDS011;4746;35.664;139.738;2023-03-31T03:23:14;8.05;;;3.65;;
9413;SDS011;4746;35.664;139.738;2023-03-31T03:25:42;4.70;;;3.63;;
9413;SDS011;4746;35.664;139.738;2023-03-31T03:28:11;6.40;;;3.97;;
9413;SDS011;4746;35.664;139.738;2023-03-31T03:30:39;4.75;;;3.90;;
9413;SDS011;4746;35.664;139.738;2023-03-31T03:33:06;5.45;;;4.03;;
9413;SDS011;4746;35.664;139.738;2023-03-31T03:35:35;4.78;;;3.53;;
9413;SDS011;4746;35.664;139.738;2023-03-31T03:38:02;5.70;;;3.33;;
9413;SDS011;4746;35.664;139.738;2023-03-31T03:40:30;4.85;;;3.72;;
9413;SDS011;4746;35.664;139.738;2023-03-31T03:42:57;7.22;;;4.10;;
9413;SDS011;4746;35.664;139.738;2023-03-31T03:45:25;6.65;;;4.68;;
9413;SDS011;4746;35.664;139.738;2023-03-31T03:47:53;5.13;;;3.55;;
9413;SDS011;4746;35.664;139.738;2023-03-31T03:50:20;4.72;;;3.75;;
9413;SDS011;4746;35.664;139.738;2023-03-31T03:52:47;4.53;;;3.60;;
9413;SDS011;4746;35.664;139.738;2023-03-31T03:55:15;7.05;;;3.95;;
9413;SDS011;4746;35.664;139.738;2023-03-31T03:57:43;5.75;;;4.15;;
9413;SDS011;4746;35.664;139.738;2023-03-31T04:00:10;5.85;;;4.45;;
9413;SDS011;4746;35.664;139.738;2023-03-31T04:02:38;7.85;;;4.43;;
9413;SDS011;4746;35.664;139.738;2023-03-31T04:05:06;4.70;;;4.13;;
9413;SDS011;4746;35.664;139.738;2023-03-31T04:07:34;6.93;;;4.40;;
9413;SDS011;4746;35.664;139.738;2023-03-31T04:10:01;5.22;;;3.15;;
9413;SDS011;4746;35.664;139.738;2023-03-31T04:12:29;5.22;;;3.08;;
9413;SDS011;4746;35.664;139.738;2023-03-31T04:15:02;6.38;;;3.95;;
9413;SDS011;4746;35.664;139.738;2023-03-31T04:17:32;5.63;;;3.40;;
9413;SDS011;4746;35.664;139.738;2023-03-31T04:20:04;7.80;;;3.67;;
9413;SDS011;4746;35.664;139.738;2023-03-31T04:22:34;4.68;;;3.38;;
9413;SDS011;4746;35.664;139.738;2023-03-31T04:25:06;5.43;;;3.83;;
9413;SDS011;4746;35.664;139.738;2023-03-31T04:27:41;6.63;;;3.90;;
9413;SDS011;4746;35.664;139.738;2023-03-31T04:30:15;6.15;;;3.75;;
9413;SDS011;4746;35.664;139.738;2023-03-31T04:32:54;5.28;;;3.65;;
9413;SDS011;4746;35.664;139.738;2023-03-31T04:35:26;4.90;;;3.65;;
9413;SDS011;4746;35.664;139.738;2023-03-31T04:38:17;5.13;;;3.00;;
9413;SDS011;4746;35.664;139.738;2023-03-31T04:40:53;7.95;;;3.83;;
9413;SDS011;4746;35.664;139.738;2023-03-31T04:43:20;3.88;;;3.45;;
9413;SDS011;4746;35.664;139.738;2023-03-31T04:45:48;7.75;;;3.85;;
9413;SDS011;4746;35.664;139.738;2023-03-31T04:48:15;5.43;;;3.47;;
9413;SDS011;4746;35.664;139.738;2023-03-31T04:50:43;6.28;;;2.95;;
9413;SDS011;4746;35.664;139.738;2023-03-31T04:53:12;4.75;;;2.90;;
9413;SDS011;4746;35.664;139.738;2023-03-31T04:55:40;3.72;;;2.83;;
9413;SDS011;4746;35.664;139.738;2023-03-31T04:58:07;5.20;;;3.13;;
9413;SDS011;4746;35.664;139.738;2023-03-31T05:00:35;4.55;;;2.72;;
9413;SDS011;4746;35.664;139.738;2023-03-31T05:03:02;3.28;;;2.35;;
9413;SDS011;4746;35.664;139.738;2023-03-31T05:05:31;4.15;;;3.30;;
9413;SDS011;4746;35.664;139.738;2023-03-31T05:07:58;6.57;;;2.80;;
9413;SDS011;4746;35.664;139.738;2023-03-31T05:10:26;5.22;;;3.00;;
9413;SDS011;4746;35.664;139.738;2023-03-31T05:12:55;6.70;;;3.13;;
9413;SDS011;4746;35.664;139.738;2023-03-31T05:15:22;3.22;;;2.92;;
9413;SDS011;4746;35.664;139.738;2023-03-31T05:17:56;5.22;;;2.97;;
9413;SDS011;4746;35.664;139.738;2023-03-31T05:20:24;3.72;;;2.40;;
9413;SDS011;4746;35.664;139.738;2023-03-31T05:22:51;5.63;;;2.65;;
9413;SDS011;4746;35.664;139.738;2023-03-31T05:25:19;5.50;;;2.75;;
9413;SDS011;4746;35.664;139.738;2023-03-31T05:27:47;5.22;;;3.20;;
9413;SDS011;4746;35.664;139.738;2023-03-31T05:30:16;3.38;;;2.13;;
9413;SDS011;4746;35.664;139.738;2023-03-31T05:32:44;7.28;;;2.53;;
9413;SDS011;4746;35.664;139.738;2023-03-31T05:35:11;7.50;;;2.67;;
9413;SDS011;4746;35.664;139.738;2023-03-31T05:37:39;5.78;;;2.83;;
9413;SDS011;4746;35.664;139.738;2023-03-31T05:40:06;4.88;;;2.65;;
9413;SDS011;4746;35.664;139.738;2023-03-31T05:42:36;4.88;;;2.40;;
9413;SDS011;4746;35.664;139.738;2023-03-31T05:45:04;6.55;;;2.60;;
9413;SDS011;4746;35.664;139.738;2023-03-31T05:47:32;5.28;;;2.75;;
9413;SDS011;4746;35.664;139.738;2023-03-31T05:50:01;6.60;;;2.60;;
9413;SDS011;4746;35.664;139.738;2023-03-31T05:52:32;3.70;;;2.38;;
9413;SDS011;4746;35.664;139.738;2023-03-31T05:55:00;6.30;;;2.45;;
9413;SDS011;4746;35.664;139.738;2023-03-31T05:57:29;4.38;;;2.38;;
9413;SDS011;4746;35.664;139.738;2023-03-31T05:59:56;2.83;;;2.13;;
9413;SDS011;4746;35.664;139.738;2023-03-31T06:02:24;5.50;;;1.98;;
9413;SDS011;4746;35.664;139.738;2023-03-31T06:04:51;3.35;;;2.22;;
9413;SDS011;4746;35.664;139.738;2023-03-31T06:07:19;2.15;;;1.95;;
9413;SDS011;4746;35.664;139.738;2023-03-31T06:09:49;4.32;;;2.47;;
9413;SDS011;4746;35.664;139.738;2023-03-31T06:12:17;6.03;;;2.20;;
9413;SDS011;4746;35.664;139.738;2023-03-31T06:14:44;3.83;;;2.20;;
9413;SDS011;4746;35.664;139.738;2023-03-31T06:17:12;7.50;;;2.60;;
9413;SDS011;4746;35.664;139.738;2023-03-31T06:19:39;4.53;;;2.90;;
9413;SDS011;4746;35.664;139.738;2023-03-31T06:22:07;3.90;;;2.15;;
9413;SDS011;4746;35.664;139.738;2023-03-31T06:24:35;4.03;;;2.57;;
9413;SDS011;4746;35.664;139.738;2023-03-31T06:27:02;3.70;;;2.50;;
9413;SDS011;4746;35.664;139.738;2023-03-31T06:29:31;5.00;;;2.43;;
9413;SDS011;4746;35.664;139.738;2023-03-31T06:31:59;3.93;;;2.50;;
9413;SDS011;4746;35.664;139.738;2023-03-31T06:34:29;3.73;;;2.33;;
9413;SDS011;4746;35.664;139.738;2023-03-31T06:36:56;4.83;;;2.77;;
9413;SDS011;4746;35.664;139.738;2023-03-31T06:39:24;4.60;;;2.60;;
9413;SDS011;4746;35.664;139.738;2023-03-31T06:41:51;3.67;;;2.30;;
9413;SDS011;4746;35.664;139.738;2023-03-31T06:44:19;3.77;;;2.60;;
9413;SDS011;4746;35.664;139.738;2023-03-31T06:46:47;5.40;;;2.40;;
9413;SDS011;4746;35.664;139.738;2023-03-31T06:49:15;5.57;;;2.50;;
9413;SDS011;4746;35.664;139.738;2023-03-31T06:51:43;4.27;;;2.30;;
9413;SDS011;4746;35.664;139.738;2023-03-31T06:54:10;5.07;;;2.93;;
9413;SDS011;4746;35.664;139.738;2023-03-31T06:56:37;5.90;;;2.67;;
9413;SDS011;4746;35.664;139.738;2023-03-31T06:59:05;4.33;;;2.93;;
9413;SDS011;4746;35.664;139.738;2023-03-31T07:01:32;3.03;;;2.50;;
9413;SDS011;4746;35.664;139.738;2023-03-31T07:04:02;4.07;;;2.40;;
9413;SDS011;4746;35.664;139.738;2023-03-31T07:06:29;2.87;;;2.13;;
9413;SDS011;4746;35.664;139.738;2023-03-31T07:08:57;5.60;;;2.37;;
9413;SDS011;4746;35.664;139.738;2023-03-31T07:11:25;5.70;;;3.10;;
9413;SDS011;4746;35.664;139.738;2023-03-31T07:13:52;5.23;;;2.43;;
9413;SDS011;4746;35.664;139.738;2023-03-31T07:16:20;4.70;;;2.60;;
9413;SDS011;4746;35.664;139.738;2023-03-31T07:18:49;5.27;;;2.53;;
9413;SDS011;4746;35.664;139.738;2023-03-31T07:21:19;5.80;;;2.70;;
9413;SDS011;4746;35.664;139.738;2023-03-31T07:23:46;4.10;;;2.37;;
9413;SDS011;4746;35.664;139.738;2023-03-31T07:26:14;5.20;;;2.70;;
9413;SDS011;4746;35.664;139.738;2023-03-31T07:28:42;4.57;;;2.43;;
9413;SDS011;4746;35.664;139.738;2023-03-31T07:31:10;5.30;;;2.63;;
9413;SDS011;4746;35.664;139.738;2023-03-31T07:33:39;6.77;;;2.40;;
9413;SDS011;4746;35.664;139.738;2023-03-31T07:36:07;3.63;;;2.40;;
9413;SDS011;4746;35.664;139.738;2023-03-31T07:38:35;4.53;;;2.83;;
9413;SDS011;4746;35.664;139.738;2023-03-31T07:41:03;5.30;;;3.17;;
9413;SDS011;4746;35.664;139.738;2023-03-31T07:43:31;4.63;;;2.37;;
9413;SDS011;4746;35.664;139.738;2023-03-31T07:45:58;8.17;;;3.07;;
9413;SDS011;4746;35.664;139.738;2023-03-31T07:48:26;6.37;;;3.53;;
9413;SDS011;4746;35.664;139.738;2023-03-31T07:50:54;6.23;;;2.97;;
9413;SDS011;4746;35.664;139.738;2023-03-31T07:53:21;4.73;;;3.10;;
9413;SDS011;4746;35.664;139.738;2023-03-31T07:55:49;6.13;;;2.97;;
9413;SDS011;4746;35.664;139.738;2023-03-31T07:58:16;6.37;;;3.20;;
9413;SDS011;4746;35.664;139.738;2023-03-31T08:00:44;5.57;;;3.20;;
9413;SDS011;4746;35.664;139.738;2023-03-31T08:03:11;4.60;;;2.73;;
9413;SDS011;4746;35.664;139.738;2023-03-31T08:05:39;3.13;;;2.33;;
9413;SDS011;4746;35.664;139.738;2023-03-31T08:08:06;5.67;;;3.30;;
9413;SDS011;4746;35.664;139.738;2023-03-31T08:10:34;5.97;;;3.07;;
9413;SDS011;4746;35.664;139.738;2023-03-31T08:13:02;6.33;;;3.10;;
9413;SDS011;4746;35.664;139.738;2023-03-31T08:15:30;3.13;;;2.30;;
9413;SDS011;4746;35.664;139.738;2023-03-31T08:17:57;4.27;;;2.77;;
9413;SDS011;4746;35.664;139.738;2023-03-31T08:20:25;5.47;;;2.73;;
9413;SDS011;4746;35.664;139.738;2023-03-31T08:22:52;6.03;;;2.80;;
9413;SDS011;4746;35.664;139.738;2023-03-31T08:25:20;6.83;;;2.70;;
9413;SDS011;4746;35.664;139.738;2023-03-31T08:27:48;4.77;;;2.90;;
9413;SDS011;4746;35.664;139.738;2023-03-31T08:30:17;5.53;;;2.27;;
9413;SDS011;4746;35.664;139.738;2023-03-31T08:32:45;7.37;;;2.83;;
9413;SDS011;4746;35.664;139.738;2023-03-31T08:35:13;5.07;;;2.77;;
9413;SDS011;4746;35.664;139.738;2023-03-31T08:37:40;3.97;;;2.63;;
9413;SDS011;4746;35.664;139.738;2023-03-31T08:40:11;5.23;;;3.07;;
9413;SDS011;4746;35.664;139.738;2023-03-31T08:42:49;4.43;;;2.60;;
9413;SDS011;4746;35.664;139.738;2023-03-31T08:45:41;7.30;;;2.70;;
9413;SDS011;4746;35.664;139.738;2023-03-31T08:50:54;6.07;;;3.20;;
9413;SDS011;4746;35.664;139.738;2023-03-31T08:53:32;5.63;;;3.63;;
9413;SDS011;4746;35.664;139.738;2023-03-31T08:56:16;4.63;;;2.80;;
9413;SDS011;4746;35.664;139.738;2023-03-31T08:58:48;4.60;;;3.10;;
9413;SDS011;4746;35.664;139.738;2023-03-31T09:09:53;6.93;;;3.13;;
9413;SDS011;4746;35.664;139.738;2023-03-31T09:13:06;5.83;;;3.20;;
9413;SDS011;4746;35.664;139.738;2023-03-31T09:19:10;6.17;;;3.57;;
9413;SDS011;4746;35.664;139.738;2023-03-31T09:22:00;6.60;;;3.33;;
9413;SDS011;4746;35.664;139.738;2023-03-31T09:24:39;5.70;;;3.80;;
9413;SDS011;4746;35.664;139.738;2023-03-31T09:27:20;4.60;;;3.70;;
9413;SDS011;4746;35.664;139.738;2023-03-31T09:29:57;4.67;;;3.37;;
9413;SDS011;4746;35.664;139.738;2023-03-31T09:32:42;5.23;;;3.67;;
9413;SDS011;4746;35.664;139.738;2023-03-31T09:35:19;3.80;;;3.33;;
9413;SDS011;4746;35.664;139.738;2023-03-31T09:37:57;4.73;;;3.60;;
9413;SDS011;4746;35.664;139.738;2023-03-31T09:40:26;4.87;;;3.57;;
9413;SDS011;4746;35.664;139.738;2023-03-31T09:43:02;7.23;;;4.70;;
9413;SDS011;4746;35.664;139.738;2023-03-31T09:45:34;7.90;;;4.07;;
9413;SDS011;4746;35.664;139.738;2023-03-31T09:48:03;5.50;;;4.17;;
9413;SDS011;4746;35.664;139.738;2023-03-31T09:51:03;5.23;;;4.57;;
9413;SDS011;4746;35.664;139.738;2023-03-31T09:56:48;5.07;;;4.13;;
9413;SDS011;4746;35.664;139.738;2023-03-31T09:59:22;7.10;;;4.53;;
9413;SDS011;4746;35.664;139.738;2023-03-31T10:01:59;6.90;;;4.80;;
9413;SDS011;4746;35.664;139.738;2023-03-31T10:04:49;6.90;;;4.70;;
9413;SDS011;4746;35.664;139.738;2023-03-31T10:07:21;6.60;;;4.83;;
9413;SDS011;4746;35.664;139.738;2023-03-31T10:09:51;4.73;;;4.23;;
9413;SDS011;4746;35.664;139.738;2023-03-31T10:12:25;6.33;;;4.70;;
9413;SDS011;4746;35.664;139.738;2023-03-31T10:15:11;7.13;;;4.50;;
9413;SDS011;4746;35.664;139.738;2023-03-31T10:17:46;6.23;;;4.07;;
9413;SDS011;4746;35.664;139.738;2023-03-31T10:20:20;8.47;;;5.17;;
9413;SDS011;4746;35.664;139.738;2023-03-31T10:23:05;8.60;;;4.50;;
9413;SDS011;4746;35.664;139.738;2023-03-31T10:25:43;5.30;;;4.07;;
9413;SDS011;4746;35.664;139.738;2023-03-31T10:28:16;11.47;;;5.77;;
9413;SDS011;4746;35.664;139.738;2023-03-31T10:30:48;6.63;;;5.13;;
9413;SDS011;4746;35.664;139.738;2023-03-31T10:33:29;9.27;;;5.73;;
9413;SDS011;4746;35.664;139.738;2023-03-31T10:36:13;8.60;;;5.17;;
9413;SDS011;4746;35.664;139.738;2023-03-31T10:38:51;8.70;;;5.27;;
9413;SDS011;4746;35.664;139.738;2023-03-31T10:41:21;8.07;;;5.10;;
9413;SDS011;4746;35.664;139.738;2023-03-31T10:44:03;8.23;;;6.20;;
9413;SDS011;4746;35.664;139.738;2023-03-31T10:46:41;9.03;;;6.20;;
9413;SDS011;4746;35.664;139.738;2023-03-31T10:51:57;8.93;;;5.33;;
9413;SDS011;4746;35.664;139.738;2023-03-31T10:54:25;6.37;;;5.10;;
9413;SDS011;4746;35.664;139.738;2023-03-31T10:57:00;7.03;;;5.60;;
9413;SDS011;4746;35.664;139.738;2023-03-31T10:59:51;7.17;;;6.03;;
9413;SDS011;4746;35.664;139.738;2023-03-31T11:09:07;8.53;;;6.27;;
9413;SDS011;4746;35.664;139.738;2023-03-31T11:15:14;8.60;;;7.07;;
9413;SDS011;4746;35.664;139.738;2023-03-31T11:27:18;8.47;;;6.00;;
9413;SDS011;4746;35.664;139.738;2023-03-31T11:29:55;8.40;;;6.30;;
9413;SDS011;4746;35.664;139.738;2023-03-31T11:32:52;7.53;;;6.33;;
9413;SDS011;4746;35.664;139.738;2023-03-31T11:35:48;7.63;;;6.07;;
9413;SDS011;4746;35.664;139.738;2023-03-31T11:41:35;9.60;;;5.93;;
9413;SDS011;4746;35.664;139.738;2023-03-31T11:44:20;8.17;;;6.60;;
9413;SDS011;4746;35.664;139.738;2023-03-31T11:46:59;9.10;;;6.53;;
9413;SDS011;4746;35.664;139.738;2023-03-31T11:49:38;7.63;;;5.27;;
9413;SDS011;4746;35.664;139.738;2023-03-31T11:55:14;8.10;;;6.70;;
9413;SDS011;4746;35.664;139.738;2023-03-31T11:57:53;11.47;;;6.87;;
9413;SDS011;4746;35.664;139.738;2023-03-31T12:06:50;7.27;;;4.50;;
9413;SDS011;4746;35.664;139.738;2023-03-31T12:12:37;7.23;;;4.80;;
9413;SDS011;4746;35.664;139.738;2023-03-31T12:15:32;9.53;;;5.57;;
9413;SDS011;4746;35.664;139.738;2023-03-31T12:18:19;9.20;;;5.77;;
9413;SDS011;4746;35.664;139.738;2023-03-31T12:20:55;5.57;;;4.77;;
9413;SDS011;4746;35.664;139.738;2023-03-31T12:23:30;7.73;;;5.93;;
9413;SDS011;4746;35.664;139.738;2023-03-31T12:31:53;7.03;;;4.50;;
9413;SDS011;4746;35.664;139.738;2023-03-31T12:34:26;7.17;;;5.07;;
9413;SDS011;4746;35.664;139.738;2023-03-31T12:37:07;7.80;;;4.63;;
9413;SDS011;4746;35.664;139.738;2023-03-31T12:42:48;7.17;;;4.90;;
9413;SDS011;4746;35.664;139.738;2023-03-31T12:45:28;7.90;;;6.10;;
9413;SDS011;4746;35.664;139.738;2023-03-31T12:54:34;7.37;;;6.27;;
9413;SDS011;4746;35.664;139.738;2023-03-31T12:57:27;12.43;;;7.53;;
9413;SDS011;4746;35.664;139.738;2023-03-31T13:02:43;8.63;;;6.43;;
9413;SDS011;4746;35.664;139.738;2023-03-31T13:08:04;8.40;;;7.50;;
9413;SDS011;4746;35.664;139.738;2023-03-31T13:10:56;8.93;;;7.13;;
9413;SDS011;4746;35.664;139.738;2023-03-31T13:13:26;8.97;;;6.23;;
9413;SDS011;4746;35.664;139.738;2023-03-31T13:15:56;10.93;;;5.87;;
9413;SDS011;4746;35.664;139.738;2023-03-31T13:18:27;8.77;;;5.70;;
9413;SDS011;4746;35.664;139.738;2023-03-31T13:21:00;9.77;;;6.13;;
9413;SDS011;4746;35.664;139.738;2023-03-31T13:23:35;9.97;;;5.63;;
9413;SDS011;4746;35.664;139.738;2023-03-31T13:26:44;7.40;;;5.90;;
9413;SDS011;4746;35.664;139.738;2023-03-31T13:34:48;7.73;;;5.97;;
9413;SDS011;4746;35.664;139.738;2023-03-31T13:43:54;8.33;;;6.03;;
9413;SDS011;4746;35.664;139.738;2023-03-31T13:50:34;7.03;;;5.77;;
9413;SDS011;4746;35.664;139.738;2023-03-31T13:59:46;9.67;;;6.47;;
9413;SDS011;4746;35.664;139.738;2023-03-31T14:03:32;8.13;;;6.83;;
9413;SDS011;4746;35.664;139.738;2023-03-31T14:06:04;7.87;;;6.80;;
9413;SDS011;4746;35.664;139.738;2023-03-31T14:09:00;8.87;;;6.73;;
9413;SDS011;4746;35.664;139.738;2023-03-31T14:11:45;8.20;;;6.57;;
9413;SDS011;4746;35.664;139.738;2023-03-31T14:14:16;8.30;;;6.43;;
9413;SDS011;4746;35.664;139.738;2023-03-31T14:16:58;10.33;;;6.53;;
9413;SDS011;4746;35.664;139.738;2023-03-31T14:28:47;9.20;;;8.20;;
9413;SDS011;4746;35.664;139.738;2023-03-31T14:31:54;10.37;;;7.33;;
9413;SDS011;4746;35.664;139.738;2023-03-31T14:34:38;15.43;;;8.50;;
9413;SDS011;4746;35.664;139.738;2023-03-31T14:37:22;11.20;;;7.93;;
9413;SDS011;4746;35.664;139.738;2023-03-31T14:39:55;8.23;;;7.20;;
9413;SDS011;4746;35.664;139.738;2023-03-31T14:46:00;8.50;;;6.13;;
9413;SDS011;4746;35.664;139.738;2023-03-31T14:48:43;9.30;;;5.90;;
9413;SDS011;4746;35.664;139.738;2023-03-31T14:51:13;7.83;;;6.27;;
9413;SDS011;4746;35.664;139.738;2023-03-31T14:53:43;8.80;;;6.57;;
9413;SDS011;4746;35.664;139.738;2023-03-31T14:56:12;11.60;;;7.07;;
9413;SDS011;4746;35.664;139.738;2023-03-31T14:58:49;7.40;;;6.60;;
9413;SDS011;4746;35.664;139.738;2023-03-31T15:01:28;8.43;;;6.07;;
9413;SDS011;4746;35.664;139.738;2023-03-31T15:04:10;8.03;;;6.80;;
9413;SDS011;4746;35.664;139.738;2023-03-31T15:06:45;12.50;;;6.87;;
9413;SDS011;4746;35.664;139.738;2023-03-31T15:09:25;12.40;;;6.77;;
9413;SDS011;4746;35.664;139.738;2023-03-31T15:11:59;9.40;;;7.13;;
9413;SDS011;4746;35.664;139.738;2023-03-31T15:14:41;10.37;;;7.50;;
9413;SDS011;4746;35.664;139.738;2023-03-31T15:17:22;9.97;;;7.43;;
9413;SDS011;4746;35.664;139.738;2023-03-31T15:19:58;13.53;;;8.30;;
9413;SDS011;4746;35.664;139.738;2023-03-31T15:22:29;8.77;;;7.33;;
9413;SDS011;4746;35.664;139.738;2023-03-31T15:24:56;9.60;;;7.30;;
9413;SDS011;4746;35.664;139.738;2023-03-31T15:30:17;10.53;;;7.60;;
9413;SDS011;4746;35.664;139.738;2023-03-31T15:32:49;9.23;;;8.23;;
9413;SDS011;4746;35.664;139.738;2023-03-31T15:35:30;10.10;;;7.57;;
9413;SDS011;4746;35.664;139.738;2023-03-31T15:38:04;11.57;;;8.43;;
9413;SDS011;4746;35.664;139.738;2023-03-31T15:40:38;12.30;;;8.97;;
9413;SDS011;4746;35.664;139.738;2023-03-31T15:45:53;10.43;;;7.90;;
9413;SDS011;4746;35.664;139.738;2023-03-31T15:48:31;12.00;;;9.47;;
9413;SDS011;4746;35.664;139.738;2023-03-31T15:51:06;12.47;;;9.60;;
9413;SDS011;4746;35.664;139.738;2023-03-31T15:53:49;9.83;;;8.93;;
9413;SDS011;4746;35.664;139.738;2023-03-31T15:56:29;14.50;;;9.63;;
9413;SDS011;4746;35.664;139.738;2023-03-31T15:59:10;12.70;;;9.30;;
9413;SDS011;4746;35.664;139.738;2023-03-31T16:01:49;12.83;;;9.77;;
9413;SDS011;4746;35.664;139.738;2023-03-31T16:04:18;11.60;;;9.27;;
9413;SDS011;4746;35.664;139.738;2023-03-31T16:06:50;11.40;;;10.23;;
9413;SDS011;4746;35.664;139.738;2023-03-31T16:12:28;11.73;;;10.53;;
9413;SDS011;4746;35.664;139.738;2023-03-31T16:15:09;14.53;;;11.33;;
9413;SDS011;4746;35.664;139.738;2023-03-31T16:17:51;12.93;;;11.63;;
9413;SDS011;4746;35.664;139.738;2023-03-31T16:20:51;12.47;;;9.83;;
9413;SDS011;4746;35.664;139.738;2023-03-31T16:23:23;16.07;;;10.27;;
9413;SDS011;4746;35.664;139.738;2023-03-31T16:25:58;11.60;;;10.40;;
9413;SDS011;4746;35.664;139.738;2023-03-31T16:28:28;13.07;;;11.20;;
9413;SDS011;4746;35.664;139.738;2023-03-31T16:31:03;12.23;;;10.90;;
9413;SDS011;4746;35.664;139.738;2023-03-31T16:33:55;14.07;;;12.20;;
9413;SDS011;4746;35.664;139.738;2023-03-31T16:36:23;15.10;;;12.17;;
9413;SDS011;4746;35.664;139.738;2023-03-31T16:38:51;12.87;;;11.50;;
9413;SDS011;4746;35.664;139.738;2023-03-31T16:41:23;14.47;;;11.63;;
9413;SDS011;4746;35.664;139.738;2023-03-31T16:43:54;13.17;;;11.83;;
9413;SDS011;4746;35.664;139.738;2023-03-31T16:46:22;14.00;;;11.20;;
9413;SDS011;4746;35.664;139.738;2023-03-31T16:48:50;15.50;;;12.43;;
9413;SDS011;4746;35.664;139.738;2023-03-31T16:51:18;15.30;;;12.70;;
9413;SDS011;4746;35.664;139.738;2023-03-31T16:53:47;17.83;;;12.63;;
9413;SDS011;4746;35.664;139.738;2023-03-31T16:56:15;14.23;;;11.73;;
9413;SDS011;4746;35.664;139.738;2023-03-31T16:58:42;15.77;;;13.73;;
9413;SDS011;4746;35.664;139.738;2023-03-31T17:01:10;17.83;;;13.73;;
9413;SDS011;4746;35.664;139.738;2023-03-31T17:03:37;14.73;;;13.17;;
9413;SDS011;4746;35.664;139.738;2023-03-31T17:06:09;16.83;;;13.13;;
9413;SDS011;4746;35.664;139.738;2023-03-31T17:08:40;20.30;;;14.00;;
9413;SDS011;4746;35.664;139.738;2023-03-31T17:11:09;15.43;;;14.00;;
9413;SDS011;4746;35.664;139.738;2023-03-31T17:13:38;16.93;;;13.50;;
9413;SDS011;4746;35.664;139.738;2023-03-31T17:16:09;14.40;;;12.90;;
9413;SDS011;4746;35.664;139.738;2023-03-31T17:18:37;16.47;;;12.77;;
9413;SDS011;4746;35.664;139.738;2023-03-31T17:21:15;15.07;;;13.47;;
9413;SDS011;4746;35.664;139.738;2023-03-31T17:23:46;15.87;;;13.43;;
9413;SDS011;4746;35.664;139.738;2023-03-31T17:26:14;14.00;;;12.60;;
9413;SDS011;4746;35.664;139.738;2023-03-31T17:28:42;15.50;;;12.83;;
9413;SDS011;4746;35.664;139.738;2023-03-31T17:33:43;17.40;;;14.47;;
9413;SDS011;4746;35.664;139.738;2023-03-31T17:36:11;15.97;;;14.30;;
9413;SDS011;4746;35.664;139.738;2023-03-31T17:38:40;17.20;;;13.87;;
9413;SDS011;4746;35.664;139.738;2023-03-31T17:41:09;15.60;;;13.37;;
9413;SDS011;4746;35.664;139.738;2023-03-31T17:43:43;16.27;;;14.60;;
9413;SDS011;4746;35.664;139.738;2023-03-31T17:46:13;16.60;;;14.37;;
9413;SDS011;4746;35.664;139.738;2023-03-31T17:48:42;15.57;;;13.80;;
9413;SDS011;4746;35.664;139.738;2023-03-31T17:51:11;14.40;;;12.83;;
9413;SDS011;4746;35.664;139.738;2023-03-31T17:53:42;15.77;;;14.27;;
9413;SDS011;4746;35.664;139.738;2023-03-31T17:56:12;14.47;;;12.93;;
9413;SDS011;4746;35.664;139.738;2023-03-31T17:58:41;15.57;;;13.07;;
9413;SDS011;4746;35.664;139.738;2023-03-31T18:01:10;17.50;;;12.60;;
9413;SDS011;4746;35.664;139.738;2023-03-31T18:03:38;14.73;;;13.33;;
9413;SDS011;4746;35.664;139.738;2023-03-31T18:06:07;13.17;;;11.70;;
9413;SDS011;4746;35.664;139.738;2023-03-31T18:08:38;15.90;;;12.57;;